Time;durP1;ratioP1;P1;durP2;ratioP2;P2;SDS_P1;SDS_P2;PMS_P1;PMS_P2;Temp;Humidity;BMP_temperature;BMP_pressure;BME280_temperature;BME280_humidity;BME280_pressure;Samples;Min_cycle;Max_cycle;Signal;HPM_P1;HPM_P2
2022/12/22 03:28:11;;;;;;;35.73;15.93;;;;;;;;;;5053687;28;20696;-74
2022/12/22 03:30:38;;;;;;;30.67;16.57;;;;;;;;;;5053652;28;20813;-74
2022/12/22 03:33:05;;;;;;;30.70;13.97;;;;;;;;;;5053053;28;21301;-75
2022/12/22 03:35:31;;;;;;;31.33;15.47;;;;;;;;;;5053404;28;20410;-75
2022/12/22 03:38:02;;;;;;;30.53;15.13;;;;;;;;;;5041949;28;20253;-75
2022/12/22 03:40:29;;;;;;;29.50;14.70;;;;;;;;;;5032943;28;20779;-75
2022/12/22 03:49:08;;;;;;;29.60;15.20;;;;;;;;;;5032732;28;21110;-75
2022/12/22 03:51:34;;;;;;;30.63;16.17;;;;;;;;;;5018443;28;20430;-75
2022/12/22 03:54:01;;;;;;;29.10;15.40;;;;;;;;;;5028946;28;20425;-75
2022/12/22 03:56:28;;;;;;;28.87;16.17;;;;;;;;;;5072498;28;20447;-75
2022/12/22 03:58:55;;;;;;;28.33;15.37;;;;;;;;;;5054726;28;20424;-76
2022/12/22 04:01:21;;;;;;;32.27;15.27;;;;;;;;;;5057262;28;20448;-75
2022/12/22 04:03:48;;;;;;;27.63;15.47;;;;;;;;;;5034671;28;20483;-75
2022/12/22 04:06:15;;;;;;;29.23;16.73;;;;;;;;;;5035165;28;20568;-76
2022/12/22 04:08:43;;;;;;;29.93;16.13;;;;;;;;;;5034595;28;20421;-75
2022/12/22 04:13:57;;;;;;;30.27;16.47;;;;;;;;;;5055460;28;20454;-73
2022/12/22 04:16:24;;;;;;;30.67;15.47;;;;;;;;;;5069854;28;20776;-72
2022/12/22 04:18:51;;;;;;;28.07;15.20;;;;;;;;;;5033553;28;20179;-70
2022/12/22 04:21:17;;;;;;;32.37;15.13;;;;;;;;;;5052228;28;20578;-71
2022/12/22 04:23:45;;;;;;;29.13;15.20;;;;;;;;;;5017285;28;20202;-74
2022/12/22 04:26:11;;;;;;;28.70;15.20;;;;;;;;;;5033865;28;20476;-73
2022/12/22 04:28:41;;;;;;;29.87;16.63;;;;;;;;;;5051361;28;20252;-78
2022/12/22 04:31:07;;;;;;;32.50;16.50;;;;;;;;;;5033776;28;20305;-74
2022/12/22 04:33:34;;;;;;;30.77;16.53;;;;;;;;;;5051808;28;20482;-71
2022/12/22 04:36:01;;;;;;;31.00;16.20;;;;;;;;;;5051941;28;20187;-76
2022/12/22 04:38:27;;;;;;;28.97;16.40;;;;;;;;;;5050069;28;20778;-79
2022/12/22 04:40:54;;;;;;;31.63;16.97;;;;;;;;;;5054222;28;20430;-77
2022/12/22 04:43:21;;;;;;;30.50;18.47;;;;;;;;;;5056431;28;20441;-79
2022/12/22 04:45:51;;;;;;;34.57;18.17;;;;;;;;;;5013793;28;20261;-77
2022/12/22 04:48:17;;;;;;;31.60;16.37;;;;;;;;;;5014209;28;20261;-78
2022/12/22 04:50:44;;;;;;;32.17;17.23;;;;;;;;;;5013767;28;20188;-70
2022/12/22 04:53:11;;;;;;;33.57;17.33;;;;;;;;;;5047713;28;20181;-68
2022/12/22 04:55:37;;;;;;;30.33;15.27;;;;;;;;;;5071261;28;20178;-71
2022/12/22 04:58:05;;;;;;;26.73;14.27;;;;;;;;;;5053256;28;20429;-68
2022/12/22 05:00:31;;;;;;;26.90;15.97;;;;;;;;;;5044567;28;20195;-68
2022/12/22 05:02:58;;;;;;;29.10;17.57;;;;;;;;;;5013829;28;20521;-70
2022/12/22 05:05:25;;;;;;;30.83;15.80;;;;;;;;;;5029580;28;20222;-72
2022/12/22 05:07:51;;;;;;;26.67;12.57;;;;;;;;;;5030095;28;20932;-69
2022/12/22 05:10:18;;;;;;;27.63;15.57;;;;;;;;;;5029752;28;20195;-68
2022/12/22 05:12:54;;;;;;;28.27;16.43;;;;;;;;;;5046659;28;20190;-70
2022/12/22 05:15:21;;;;;;;25.60;15.40;;;;;;;;;;5048973;28;20484;-71
2022/12/22 05:17:48;;;;;;;25.33;13.53;;;;;;;;;;5049587;28;20198;-73
2022/12/22 05:20:15;;;;;;;28.90;14.57;;;;;;;;;;5033119;28;20183;-69
2022/12/22 05:22:42;;;;;;;26.97;14.53;;;;;;;;;;5016473;28;20444;-69
2022/12/22 05:25:09;;;;;;;26.80;13.37;;;;;;;;;;5050322;28;20850;-69
2022/12/22 05:27:36;;;;;;;28.97;15.73;;;;;;;;;;5032747;28;20430;-75
2022/12/22 05:30:03;;;;;;;28.40;15.50;;;;;;;;;;5062294;28;20252;-70
2022/12/22 05:32:32;;;;;;;31.43;17.00;;;;;;;;;;5015237;28;20967;-71
2022/12/22 05:35:00;;;;;;;28.27;16.57;;;;;;;;;;5032154;28;20541;-72
2022/12/22 05:37:27;;;;;;;31.33;15.93;;;;;;;;;;5022227;28;20438;-69
2022/12/22 05:39:54;;;;;;;25.63;14.37;;;;;;;;;;5012894;28;20418;-73
2022/12/22 05:42:35;;;;;;;23.73;13.07;;;;;;;;;;5030726;28;20666;-71
2022/12/22 05:45:08;;;;;;;26.47;14.73;;;;;;;;;;5015141;28;20453;-74
2022/12/22 05:47:35;;;;;;;27.93;15.17;;;;;;;;;;5030449;28;20192;-73
2022/12/22 05:50:08;;;;;;;29.60;15.27;;;;;;;;;;5069853;27;1767744;-72
2022/12/22 05:52:35;;;;;;;26.53;14.87;;;;;;;;;;5120139;28;20260;-70
2022/12/22 05:55:02;;;;;;;30.13;15.60;;;;;;;;;;5106180;28;20419;-72
2022/12/22 05:57:29;;;;;;;27.20;15.50;;;;;;;;;;5127093;28;20215;-71
2022/12/22 05:59:55;;;;;;;31.83;14.90;;;;;;;;;;5127751;28;20168;-72
2022/12/22 06:02:22;;;;;;;29.13;15.57;;;;;;;;;;5119889;28;20192;-76
2022/12/22 06:04:50;;;;;;;32.77;15.87;;;;;;;;;;5103289;28;20185;-73
2022/12/22 06:07:17;;;;;;;31.17;16.23;;;;;;;;;;5070797;28;20499;-72
2022/12/22 06:09:44;;;;;;;35.50;17.27;;;;;;;;;;5104524;28;20454;-71
2022/12/22 06:12:11;;;;;;;34.73;17.70;;;;;;;;;;5104931;28;20572;-72
2022/12/22 06:14:38;;;;;;;29.73;16.20;;;;;;;;;;5104841;28;20430;-72
2022/12/22 06:17:07;;;;;;;33.17;17.57;;;;;;;;;;5087773;28;20300;-73
2022/12/22 06:19:34;;;;;;;31.40;18.00;;;;;;;;;;5105077;28;20787;-72
2022/12/22 06:22:00;;;;;;;33.27;16.77;;;;;;;;;;5105560;28;20197;-74
2022/12/22 06:24:27;;;;;;;31.57;18.03;;;;;;;;;;5103918;28;20473;-73
2022/12/22 06:26:54;;;;;;;35.50;18.80;;;;;;;;;;5124787;28;20488;-70
2022/12/22 06:29:21;;;;;;;33.23;17.90;;;;;;;;;;5106693;28;20882;-70
2022/12/22 06:31:47;;;;;;;35.63;18.63;;;;;;;;;;5106922;28;20197;-76
2022/12/22 06:34:16;;;;;;;31.03;17.67;;;;;;;;;;5099360;28;20446;-79
2022/12/22 06:36:44;;;;;;;33.53;17.90;;;;;;;;;;5106088;28;20262;-78
2022/12/22 06:39:12;;;;;;;34.70;18.53;;;;;;;;;;5100115;28;20435;-79
2022/12/22 06:44:25;;;;;;;34.83;18.50;;;;;;;;;;5086476;28;20181;-79
2022/12/22 06:46:52;;;;;;;34.00;17.83;;;;;;;;;;5086460;28;20197;-79
2022/12/22 06:49:19;;;;;;;31.17;18.83;;;;;;;;;;5087791;28;20507;-78
2022/12/22 06:51:46;;;;;;;33.43;18.60;;;;;;;;;;5107477;28;20548;-79
2022/12/22 06:54:13;;;;;;;38.27;20.00;;;;;;;;;;5101860;28;20655;-79
2022/12/22 06:56:45;;;;;;;38.87;18.80;;;;;;;;;;5031206;28;20747;-74
2022/12/22 06:59:29;;;;;;;34.73;18.20;;;;;;;;;;5078751;28;20174;-72
2022/12/22 07:02:03;;;;;;;31.10;17.03;;;;;;;;;;5049849;28;20778;-70
2022/12/22 07:04:37;;;;;;;32.17;17.30;;;;;;;;;;5054202;28;20194;-71
2022/12/22 07:07:05;;;;;;;29.20;16.53;;;;;;;;;;5068946;28;20190;-75
2022/12/22 07:09:36;;;;;;;29.53;17.20;;;;;;;;;;5020091;28;20232;-75
2022/12/22 07:12:03;;;;;;;37.00;20.00;;;;;;;;;;5035834;28;20187;-74
2022/12/22 07:14:30;;;;;;;36.43;19.77;;;;;;;;;;5032305;28;20459;-74
2022/12/22 07:16:58;;;;;;;35.47;18.40;;;;;;;;;;5049589;28;20441;-76
2022/12/22 07:19:29;;;;;;;31.73;17.87;;;;;;;;;;5033873;28;20998;-75
2022/12/22 07:22:03;;;;;;;31.50;17.93;;;;;;;;;;5028948;28;20824;-77
2022/12/22 07:24:41;;;;;;;32.30;16.93;;;;;;;;;;5023510;28;20539;-74
2022/12/22 07:27:09;;;;;;;32.40;17.37;;;;;;;;;;5016873;28;20217;-79
2022/12/22 07:29:53;;;;;;;31.43;16.23;;;;;;;;;;5028565;28;20213;-74
2022/12/22 07:32:23;;;;;;;32.00;17.00;;;;;;;;;;5049987;28;20424;-79
2022/12/22 07:34:49;;;;;;;33.83;17.60;;;;;;;;;;5046262;28;20197;-72
2022/12/22 07:37:16;;;;;;;35.40;18.53;;;;;;;;;;5064695;28;20498;-74
2022/12/22 07:39:43;;;;;;;34.77;16.97;;;;;;;;;;5051605;28;20214;-74
2022/12/22 07:42:46;;;;;;;33.23;16.90;;;;;;;;;;5051493;28;20658;-74
2022/12/22 07:45:13;;;;;;;31.83;16.87;;;;;;;;;;5051879;28;20436;-74
2022/12/22 07:47:58;;;;;;;22.20;11.17;;;;;;;;;;5051706;28;20425;-74
2022/12/22 07:50:26;;;;;;;34.47;18.17;;;;;;;;;;5051466;28;20253;-74
2022/12/22 07:53:11;;;;;;;36.60;19.17;;;;;;;;;;5036169;28;20919;-74
2022/12/22 07:55:40;;;;;;;34.40;16.87;;;;;;;;;;5010556;28;20745;-78
2022/12/22 07:58:09;;;;;;;33.37;18.37;;;;;;;;;;5013957;28;20450;-75
2022/12/22 08:00:36;;;;;;;33.60;15.20;;;;;;;;;;5031341;28;20524;-78
2022/12/22 08:03:04;;;;;;;36.27;17.90;;;;;;;;;;5032494;28;20469;-70
2022/12/22 08:05:32;;;;;;;29.07;14.90;;;;;;;;;;5018533;28;20191;-76
2022/12/22 08:08:02;;;;;;;34.60;17.90;;;;;;;;;;5021872;28;20455;-77
2022/12/22 08:10:37;;;;;;;33.73;17.20;;;;;;;;;;5042753;28;20221;-75
2022/12/22 08:13:21;;;;;;;41.07;17.97;;;;;;;;;;5053659;28;20440;-76
2022/12/22 08:15:48;;;;;;;35.20;17.20;;;;;;;;;;5001117;28;20449;-78
2022/12/22 08:18:16;;;;;;;36.87;14.53;;;;;;;;;;5051036;28;20201;-78
2022/12/22 08:20:56;;;;;;;41.23;19.40;;;;;;;;;;5051707;28;20477;-79
2022/12/22 08:23:24;;;;;;;36.17;15.93;;;;;;;;;;5033297;28;20444;-79
2022/12/22 08:25:58;;;;;;;36.03;18.00;;;;;;;;;;5010446;28;20487;-79
2022/12/22 08:28:30;;;;;;;34.10;16.30;;;;;;;;;;5027190;28;20186;-76
2022/12/22 08:30:57;;;;;;;33.80;15.73;;;;;;;;;;5013044;28;20265;-79
2022/12/22 08:33:32;;;;;;;37.20;18.33;;;;;;;;;;5029707;28;20195;-78
2022/12/22 08:36:04;;;;;;;37.90;16.60;;;;;;;;;;5002053;28;20449;-72
2022/12/22 08:38:34;;;;;;;31.00;13.50;;;;;;;;;;5016287;28;20187;-76
2022/12/22 08:41:01;;;;;;;39.27;19.63;;;;;;;;;;5047747;28;20285;-79
2022/12/22 08:43:28;;;;;;;40.17;17.23;;;;;;;;;;5046218;28;20521;-76
2022/12/22 08:45:55;;;;;;;36.80;16.47;;;;;;;;;;5030209;28;20440;-77
2022/12/22 08:48:24;;;;;;;36.87;16.67;;;;;;;;;;5013982;28;20456;-79
2022/12/22 08:50:53;;;;;;;41.57;21.27;;;;;;;;;;5012707;28;21042;-76
2022/12/22 08:53:21;;;;;;;33.77;15.50;;;;;;;;;;5028750;28;20260;-73
2022/12/22 08:56:09;;;;;;;35.93;15.90;;;;;;;;;;5052727;28;20436;-77
2022/12/22 08:58:36;;;;;;;43.17;20.93;;;;;;;;;;5014546;28;20474;-74
2022/12/22 09:01:03;;;;;;;36.40;16.63;;;;;;;;;;5029653;28;20210;-75
2022/12/22 09:03:30;;;;;;;36.77;16.17;;;;;;;;;;5046485;28;20212;-78
2022/12/22 09:06:00;;;;;;;37.17;17.57;;;;;;;;;;5040373;28;20519;-77
2022/12/22 09:08:27;;;;;;;37.90;17.03;;;;;;;;;;5012522;28;20433;-79
2022/12/22 09:10:54;;;;;;;33.67;16.13;;;;;;;;;;5023069;28;20433;-75
2022/12/22 09:13:23;;;;;;;37.00;16.10;;;;;;;;;;5047139;28;20428;-78
2022/12/22 09:15:52;;;;;;;43.03;18.10;;;;;;;;;;5046690;28;20460;-73
2022/12/22 09:18:19;;;;;;;33.73;16.10;;;;;;;;;;5046505;28;20194;-74
2022/12/22 09:20:46;;;;;;;44.83;17.60;;;;;;;;;;5027164;28;20277;-73
2022/12/22 09:23:13;;;;;;;40.90;17.67;;;;;;;;;;5028936;28;20433;-71
2022/12/22 09:25:40;;;;;;;36.13;16.80;;;;;;;;;;5046106;28;20482;-72
2022/12/22 09:28:07;;;;;;;36.97;17.97;;;;;;;;;;5046204;28;20189;-71
2022/12/22 09:30:34;;;;;;;37.23;16.60;;;;;;;;;;5058857;28;20681;-71
2022/12/22 09:33:01;;;;;;;36.30;16.77;;;;;;;;;;5035921;28;20514;-70
2022/12/22 09:35:28;;;;;;;38.70;18.33;;;;;;;;;;5036595;28;20532;-72
2022/12/22 09:37:57;;;;;;;34.70;15.73;;;;;;;;;;5048841;28;20183;-73
2022/12/22 09:40:25;;;;;;;37.30;16.37;;;;;;;;;;5033166;28;20442;-72
2022/12/22 09:42:54;;;;;;;37.07;16.63;;;;;;;;;;5029653;28;20432;-72
2022/12/22 09:45:21;;;;;;;35.27;13.80;;;;;;;;;;5066677;28;20194;-74
2022/12/22 09:47:54;;;;;;;37.00;16.10;;;;;;;;;;5038803;28;20543;-74
2022/12/22 09:50:22;;;;;;;33.50;15.30;;;;;;;;;;5022142;28;20230;-74
2022/12/22 09:52:53;;;;;;;38.03;16.63;;;;;;;;;;5045538;28;20558;-74
2022/12/22 09:55:25;;;;;;;38.80;16.83;;;;;;;;;;5046045;28;20202;-73
2022/12/22 09:57:53;;;;;;;37.43;16.40;;;;;;;;;;5028527;28;20187;-75
2022/12/22 10:00:21;;;;;;;37.17;14.40;;;;;;;;;;4995482;28;20235;-75
2022/12/22 10:02:57;;;;;;;34.17;14.70;;;;;;;;;;5024226;28;20469;-74
2022/12/22 10:05:37;;;;;;;33.27;15.13;;;;;;;;;;5024045;28;20445;-74
2022/12/22 10:08:12;;;;;;;37.77;16.37;;;;;;;;;;5027657;28;20199;-76
2022/12/22 10:10:40;;;;;;;36.83;15.37;;;;;;;;;;5039202;28;20258;-72
2022/12/22 10:13:12;;;;;;;38.70;16.30;;;;;;;;;;5008410;28;20194;-76
2022/12/22 10:15:39;;;;;;;39.20;15.70;;;;;;;;;;5007825;28;20529;-72
2022/12/22 10:18:19;;;;;;;34.83;16.17;;;;;;;;;;5023997;28;20426;-73
2022/12/22 10:21:06;;;;;;;24.50;10.63;;;;;;;;;;5006745;28;20286;-73
2022/12/22 10:23:37;;;;;;;32.07;15.63;;;;;;;;;;5022599;28;20282;-73
2022/12/22 10:26:08;;;;;;;29.93;15.70;;;;;;;;;;5042494;28;20199;-74
2022/12/22 10:29:04;;;;;;;16.83;7.20;;;;;;;;;;5028750;28;20202;-68
2022/12/22 10:31:32;;;;;;;29.03;13.13;;;;;;;;;;5022691;28;20225;-71
2022/12/22 10:34:10;;;;;;;28.80;14.20;;;;;;;;;;5007703;28;20195;-71
2022/12/22 10:36:37;;;;;;;30.97;13.67;;;;;;;;;;5009692;28;20761;-70
2022/12/22 10:39:08;;;;;;;31.27;15.83;;;;;;;;;;5029668;28;20602;-71
2022/12/22 10:41:35;;;;;;;25.57;14.23;;;;;;;;;;5012405;28;20418;-70
2022/12/22 10:44:10;;;;;;;27.40;13.73;;;;;;;;;;5010565;28;20239;-72
2022/12/22 10:46:38;;;;;;;26.17;13.90;;;;;;;;;;5008839;28;20190;-72
2022/12/22 10:49:11;;;;;;;24.13;12.87;;;;;;;;;;4989962;28;20622;-72
2022/12/22 10:51:40;;;;;;;25.20;13.17;;;;;;;;;;5028839;28;20665;-76
2022/12/22 10:54:07;;;;;;;25.00;13.27;;;;;;;;;;5009884;28;20446;-75
2022/12/22 10:56:34;;;;;;;25.30;12.60;;;;;;;;;;5011728;28;20187;-73
2022/12/22 10:59:01;;;;;;;27.77;13.73;;;;;;;;;;5026842;28;20646;-74
2022/12/22 11:01:29;;;;;;;26.53;14.23;;;;;;;;;;5017472;28;20473;-70
2022/12/22 11:03:56;;;;;;;24.53;13.83;;;;;;;;;;5011876;28;20183;-71
2022/12/22 11:06:23;;;;;;;24.17;13.73;;;;;;;;;;5002499;28;20278;-76
2022/12/22 11:08:50;;;;;;;26.90;14.27;;;;;;;;;;4990961;28;20184;-70
2022/12/22 11:11:31;;;;;;;27.67;13.20;;;;;;;;;;4996612;28;20300;-76
2022/12/22 11:14:05;;;;;;;24.50;12.47;;;;;;;;;;4994007;28;20653;-74
2022/12/22 11:16:35;;;;;;;28.00;14.90;;;;;;;;;;5010951;28;20205;-75
2022/12/22 11:19:02;;;;;;;22.70;12.63;;;;;;;;;;5010778;28;20198;-75
2022/12/22 11:21:39;;;;;;;26.97;13.50;;;;;;;;;;5007514;28;20214;-75
2022/12/22 11:24:20;;;;;;;26.20;13.73;;;;;;;;;;5008488;28;20202;-75
2022/12/22 11:27:06;;;;;;;24.87;12.80;;;;;;;;;;4999217;28;20246;-75
2022/12/22 11:29:39;;;;;;;22.93;12.97;;;;;;;;;;5026003;28;20211;-75
2022/12/22 11:32:09;;;;;;;28.23;14.37;;;;;;;;;;5010275;28;20202;-75
2022/12/22 11:34:59;;;;;;;25.43;14.13;;;;;;;;;;5028705;28;20192;-75
2022/12/22 11:37:26;;;;;;;27.53;14.47;;;;;;;;;;5020227;28;20840;-75
2022/12/22 11:39:55;;;;;;;25.80;13.60;;;;;;;;;;5027335;28;20187;-72
2022/12/22 11:42:44;;;;;;;27.97;14.10;;;;;;;;;;5011054;28;20237;-76
2022/12/22 11:45:17;;;;;;;30.73;15.53;;;;;;;;;;5027061;28;20270;-77
2022/12/22 11:47:53;;;;;;;27.97;14.47;;;;;;;;;;5007687;28;20418;-75
2022/12/22 11:50:39;;;;;;;37.67;19.03;;;;;;;;;;5009896;28;20226;-75
2022/12/22 11:53:44;;;;;;;34.53;15.77;;;;;;;;;;5012349;28;20196;-75
2022/12/22 11:56:37;;;;;;;28.33;15.00;;;;;;;;;;5009053;28;20271;-75
2022/12/22 11:59:22;;;;;;;30.67;15.60;;;;;;;;;;5019315;28;20265;-78
2022/12/22 12:01:52;;;;;;;30.40;16.67;;;;;;;;;;5017488;28;20187;-75
2022/12/22 12:04:37;;;;;;;33.83;17.33;;;;;;;;;;5046708;28;20214;-78
2022/12/22 12:07:23;;;;;;;32.67;16.20;;;;;;;;;;5039886;28;20226;-74
2022/12/22 12:09:58;;;;;;;31.97;16.07;;;;;;;;;;5046558;28;20280;-78
2022/12/22 12:12:25;;;;;;;32.27;15.60;;;;;;;;;;5047245;28;20195;-75
2022/12/22 12:15:07;;;;;;;31.10;16.00;;;;;;;;;;5047225;28;20206;-80
2022/12/22 12:18:01;;;;;;;32.77;15.60;;;;;;;;;;5034589;28;20196;-80
2022/12/22 12:20:37;;;;;;;30.23;16.00;;;;;;;;;;4999997;28;20265;-78
2022/12/22 12:23:23;;;;;;;32.80;15.30;;;;;;;;;;5044091;28;20191;-77
2022/12/22 12:26:08;;;;;;;29.57;14.63;;;;;;;;;;5038642;28;20192;-75
2022/12/22 12:28:47;;;;;;;30.43;15.63;;;;;;;;;;5030878;28;20222;-76
2022/12/22 12:31:14;;;;;;;28.90;15.03;;;;;;;;;;5028805;28;20840;-74
2022/12/22 12:33:47;;;;;;;29.53;15.23;;;;;;;;;;5022059;28;20209;-75
2022/12/22 12:36:14;;;;;;;31.73;15.63;;;;;;;;;;5029672;28;20189;-77
2022/12/22 12:38:53;;;;;;;27.27;13.83;;;;;;;;;;5026001;28;20194;-77
2022/12/22 12:41:38;;;;;;;31.70;15.13;;;;;;;;;;5035109;28;20198;-78
2022/12/22 12:44:10;;;;;;;27.30;15.50;;;;;;;;;;5012739;28;20937;-71
2022/12/22 12:46:41;;;;;;;28.47;14.80;;;;;;;;;;5012887;28;20206;-75
2022/12/22 12:49:28;;;;;;;32.10;16.23;;;;;;;;;;5039637;28;20229;-75
2022/12/22 12:51:55;;;;;;;32.90;16.70;;;;;;;;;;5044695;28;20253;-76
2022/12/22 12:54:33;;;;;;;31.33;16.67;;;;;;;;;;5029591;28;20207;-74
2022/12/22 12:56:59;;;;;;;29.37;15.97;;;;;;;;;;5011987;28;20194;-76
2022/12/22 12:59:38;;;;;;;31.67;16.77;;;;;;;;;;5016389;28;20187;-80
2022/12/22 13:02:24;;;;;;;30.57;15.90;;;;;;;;;;5034150;28;20194;-78
2022/12/22 13:04:59;;;;;;;30.00;15.17;;;;;;;;;;5046540;28;20239;-79
2022/12/22 13:07:48;;;;;;;26.93;14.17;;;;;;;;;;5029836;28;20285;-77
2022/12/22 13:10:22;;;;;;;28.33;15.93;;;;;;;;;;5028926;28;20218;-77
2022/12/22 13:12:52;;;;;;;32.10;16.67;;;;;;;;;;5029461;28;20190;-74
2022/12/22 13:15:38;;;;;;;27.93;15.73;;;;;;;;;;5008957;28;20202;-78
2022/12/22 13:18:27;;;;;;;31.97;16.90;;;;;;;;;;5032100;28;20198;-73
2022/12/22 13:20:54;;;;;;;33.47;17.53;;;;;;;;;;5033311;28;20248;-77
2022/12/22 13:23:41;;;;;;;32.37;17.47;;;;;;;;;;5031568;28;20226;-80
2022/12/22 13:26:34;;;;;;;32.70;17.80;;;;;;;;;;5044457;28;20261;-78
2022/12/22 13:29:08;;;;;;;34.90;18.57;;;;;;;;;;5038467;28;20213;-71
2022/12/22 13:31:39;;;;;;;32.17;17.40;;;;;;;;;;5027274;28;20297;-72
2022/12/22 13:34:23;;;;;;;37.07;19.20;;;;;;;;;;5024059;28;20187;-75
2022/12/22 13:36:50;;;;;;;31.70;17.43;;;;;;;;;;5030228;28;20186;-74
2022/12/22 13:39:17;;;;;;;36.50;18.53;;;;;;;;;;5046145;28;20763;-70
2022/12/22 13:41:48;;;;;;;33.13;17.73;;;;;;;;;;5045480;28;20207;-72
2022/12/22 13:44:17;;;;;;;34.50;16.93;;;;;;;;;;5045614;28;20237;-73
2022/12/22 13:46:43;;;;;;;31.43;17.73;;;;;;;;;;5027786;28;20202;-72
2022/12/22 13:49:17;;;;;;;35.30;17.90;;;;;;;;;;5026184;28;20623;-72
2022/12/22 13:52:11;;;;;;;31.27;17.17;;;;;;;;;;5045740;28;20233;-71
2022/12/22 13:54:39;;;;;;;31.67;16.63;;;;;;;;;;5025080;28;20202;-72
2022/12/22 13:57:11;;;;;;;36.63;18.80;;;;;;;;;;5045847;28;20302;-73
2022/12/22 13:59:39;;;;;;;40.07;18.87;;;;;;;;;;5027991;28;20195;-72
2022/12/22 14:02:10;;;;;;;34.40;17.90;;;;;;;;;;5024880;28;20286;-70
2022/12/22 14:04:38;;;;;;;36.63;18.93;;;;;;;;;;5014934;28;20223;-74
2022/12/22 14:07:14;;;;;;;37.10;18.40;;;;;;;;;;5027066;28;20209;-71
2022/12/22 14:09:45;;;;;;;37.73;17.93;;;;;;;;;;5049901;28;20194;-72
2022/12/22 14:12:13;;;;;;;39.67;18.90;;;;;;;;;;5022584;28;20299;-72
2022/12/22 14:14:41;;;;;;;37.20;19.57;;;;;;;;;;5016422;28;20210;-70
2022/12/22 14:17:22;;;;;;;43.87;18.70;;;;;;;;;;5044062;28;20603;-72
2022/12/22 14:19:50;;;;;;;43.17;20.73;;;;;;;;;;5005382;28;20187;-72
2022/12/22 14:22:17;;;;;;;41.50;19.20;;;;;;;;;;5003571;28;20199;-73
2022/12/22 14:24:45;;;;;;;43.73;21.37;;;;;;;;;;5048184;28;20190;-73
2022/12/22 14:27:17;;;;;;;41.10;20.67;;;;;;;;;;5047261;28;20581;-71
2022/12/22 14:29:44;;;;;;;42.37;20.13;;;;;;;;;;5032186;28;20437;-74
2022/12/22 14:32:11;;;;;;;40.60;20.13;;;;;;;;;;5035851;28;20569;-74
2022/12/22 14:34:38;;;;;;;40.10;19.20;;;;;;;;;;5036718;28;20190;-74
2022/12/22 14:37:07;;;;;;;40.43;20.20;;;;;;;;;;5016916;28;20860;-74
2022/12/22 14:39:34;;;;;;;40.37;19.97;;;;;;;;;;5023437;28;20183;-73
2022/12/22 14:42:01;;;;;;;38.73;20.00;;;;;;;;;;5053822;28;20426;-74
2022/12/22 14:44:36;;;;;;;38.73;20.90;;;;;;;;;;5052508;28;20187;-74
2022/12/22 14:47:18;;;;;;;37.30;19.27;;;;;;;;;;5045086;28;20244;-75
2022/12/22 14:50:00;;;;;;;36.63;18.77;;;;;;;;;;5050117;28;20225;-74
2022/12/22 14:52:34;;;;;;;39.83;20.17;;;;;;;;;;5036279;28;20218;-73
2022/12/22 14:55:02;;;;;;;38.07;20.47;;;;;;;;;;5053055;28;20233;-75
2022/12/22 14:57:29;;;;;;;34.53;18.77;;;;;;;;;;5031731;28;20179;-71
2022/12/22 15:00:14;;;;;;;32.70;17.97;;;;;;;;;;5048251;28;20441;-68
2022/12/22 15:02:47;;;;;;;33.57;18.63;;;;;;;;;;5044511;28;20443;-74
2022/12/22 15:05:26;;;;;;;35.17;18.57;;;;;;;;;;5037411;28;20191;-73
2022/12/22 15:07:55;;;;;;;32.00;17.73;;;;;;;;;;5053548;28;20514;-74
2022/12/22 15:10:39;;;;;;;26.90;15.30;;;;;;;;;;5028855;28;20211;-73
2022/12/22 15:13:10;;;;;;;29.90;17.60;;;;;;;;;;5045525;28;20191;-74
2022/12/22 15:15:39;;;;;;;33.03;18.13;;;;;;;;;;4998649;28;20469;-73
2022/12/22 15:18:10;;;;;;;31.10;17.73;;;;;;;;;;5044165;28;20190;-73
2022/12/22 15:20:37;;;;;;;32.13;19.47;;;;;;;;;;5023033;28;20449;-73
2022/12/22 15:23:12;;;;;;;29.50;17.57;;;;;;;;;;5036862;28;20449;-73
2022/12/22 15:25:42;;;;;;;28.30;16.43;;;;;;;;;;5051012;28;20459;-74
2022/12/22 15:28:09;;;;;;;29.77;17.90;;;;;;;;;;5061053;28;20455;-73
2022/12/22 15:30:36;;;;;;;28.03;15.90;;;;;;;;;;5044877;28;20296;-73
2022/12/22 15:33:03;;;;;;;29.83;19.23;;;;;;;;;;5024954;28;20606;-80
2022/12/22 15:35:30;;;;;;;32.40;18.40;;;;;;;;;;5036940;28;20202;-74
2022/12/22 15:37:58;;;;;;;31.47;18.20;;;;;;;;;;5031492;28;20477;-72
2022/12/22 15:40:27;;;;;;;34.70;19.30;;;;;;;;;;5041961;28;20609;-75
2022/12/22 15:42:54;;;;;;;31.37;18.67;;;;;;;;;;5038798;28;20475;-74
2022/12/22 15:45:21;;;;;;;34.90;21.23;;;;;;;;;;5047410;28;20187;-78
2022/12/22 15:47:50;;;;;;;36.13;20.90;;;;;;;;;;5049313;28;20274;-78
2022/12/22 15:50:35;;;;;;;35.27;20.63;;;;;;;;;;5047019;28;20475;-77
2022/12/22 15:53:05;;;;;;;37.70;20.20;;;;;;;;;;5047781;28;20182;-80
2022/12/22 15:55:51;;;;;;;37.87;21.10;;;;;;;;;;5038973;28;20455;-78
2022/12/22 15:58:24;;;;;;;36.03;20.20;;;;;;;;;;5020324;28;20203;-78
2022/12/22 16:00:54;;;;;;;35.37;20.83;;;;;;;;;;5006392;28;20865;-80
2022/12/22 16:03:25;;;;;;;37.70;21.03;;;;;;;;;;5013150;28;20645;-79
2022/12/22 16:05:53;;;;;;;36.67;21.07;;;;;;;;;;5034564;28;20438;-73
2022/12/22 16:08:26;;;;;;;37.83;23.00;;;;;;;;;;5032453;28;20195;-78
2022/12/22 16:11:11;;;;;;;42.07;22.97;;;;;;;;;;5022587;28;20207;-72
2022/12/22 16:13:40;;;;;;;37.63;21.13;;;;;;;;;;5000679;28;20222;-74
2022/12/22 16:16:10;;;;;;;38.63;22.83;;;;;;;;;;4996972;28;20303;-75
2022/12/22 16:18:37;;;;;;;39.37;22.07;;;;;;;;;;4997343;28;20446;-75
2022/12/22 16:21:15;;;;;;;38.33;21.00;;;;;;;;;;5013949;28;20839;-77
2022/12/22 16:23:43;;;;;;;33.20;19.93;;;;;;;;;;4994586;28;20555;-77
2022/12/22 16:26:11;;;;;;;35.73;19.93;;;;;;;;;;5025245;28;20191;-75
2022/12/22 16:28:38;;;;;;;36.90;20.33;;;;;;;;;;5032770;28;20438;-76
2022/12/22 16:31:05;;;;;;;40.30;22.07;;;;;;;;;;5034803;28;20920;-77
2022/12/22 16:33:32;;;;;;;39.60;22.03;;;;;;;;;;5010092;28;20553;-75
2022/12/22 16:35:59;;;;;;;36.90;21.53;;;;;;;;;;5029577;28;20222;-75
2022/12/22 16:38:26;;;;;;;40.70;22.57;;;;;;;;;;5008825;28;20446;-73
2022/12/22 16:40:54;;;;;;;36.40;21.67;;;;;;;;;;4995568;28;20270;-75
2022/12/22 16:43:27;;;;;;;37.13;21.90;;;;;;;;;;5031340;28;20191;-76
2022/12/22 16:46:12;;;;;;;35.90;22.23;;;;;;;;;;5031415;28;20576;-75
2022/12/22 16:49:01;;;;;;;37.17;21.33;;;;;;;;;;5021999;28;20224;-70
2022/12/22 16:51:32;;;;;;;42.13;22.93;;;;;;;;;;4990641;28;20226;-71
2022/12/22 16:53:59;;;;;;;34.73;19.90;;;;;;;;;;4988306;28;20195;-72
2022/12/22 16:56:30;;;;;;;35.27;20.60;;;;;;;;;;4993184;28;20447;-76
2022/12/22 16:58:57;;;;;;;37.97;21.70;;;;;;;;;;4987183;28;20196;-72
2022/12/22 17:01:35;;;;;;;39.17;22.70;;;;;;;;;;4985153;28;20544;-79
2022/12/22 17:04:05;;;;;;;39.93;23.70;;;;;;;;;;4970292;28;20542;-74
2022/12/22 17:06:32;;;;;;;41.50;24.17;;;;;;;;;;4993997;28;20282;-77
2022/12/22 17:09:00;;;;;;;40.83;24.03;;;;;;;;;;5023279;28;20298;-74
2022/12/22 17:11:29;;;;;;;40.83;22.97;;;;;;;;;;5033401;28;20496;-73
2022/12/22 17:13:58;;;;;;;38.87;22.27;;;;;;;;;;5007470;28;20590;-73
2022/12/22 17:16:25;;;;;;;38.37;22.90;;;;;;;;;;5006911;28;20211;-76
2022/12/22 17:18:54;;;;;;;35.53;20.93;;;;;;;;;;5026793;28;20195;-75
2022/12/22 17:21:23;;;;;;;40.30;21.23;;;;;;;;;;5036182;28;20476;-74
2022/12/22 17:23:51;;;;;;;38.97;21.40;;;;;;;;;;5009117;28;20442;-72
2022/12/22 17:26:18;;;;;;;39.13;21.20;;;;;;;;;;5008722;28;20437;-71
2022/12/22 17:28:46;;;;;;;38.93;22.63;;;;;;;;;;5013791;28;20484;-76
2022/12/22 17:31:14;;;;;;;42.20;23.10;;;;;;;;;;4994622;28;20805;-74
2022/12/22 17:33:43;;;;;;;41.67;22.43;;;;;;;;;;5009790;28;20192;-75
2022/12/22 17:36:34;;;;;;;41.50;22.13;;;;;;;;;;5029548;28;20449;-77
2022/12/22 17:39:02;;;;;;;45.83;22.87;;;;;;;;;;5015463;28;20478;-75
2022/12/22 17:41:29;;;;;;;42.60;23.87;;;;;;;;;;4982810;28;20268;-74
2022/12/22 17:43:58;;;;;;;39.57;22.70;;;;;;;;;;5042538;28;20433;-75
2022/12/22 17:46:26;;;;;;;41.33;22.33;;;;;;;;;;5010749;28;20195;-74
2022/12/22 17:48:53;;;;;;;37.07;19.10;;;;;;;;;;5009780;28;20223;-77
2022/12/22 17:51:24;;;;;;;42.87;22.93;;;;;;;;;;5028230;28;20518;-73
2022/12/22 17:53:51;;;;;;;44.67;23.37;;;;;;;;;;5044910;28;20975;-75
2022/12/22 17:56:20;;;;;;;38.20;21.40;;;;;;;;;;5010252;28;20195;-76
2022/12/22 17:58:49;;;;;;;52.00;25.87;;;;;;;;;;5037686;28;20658;-75
2022/12/22 18:01:20;;;;;;;41.50;21.40;;;;;;;;;;5025530;28;20562;-72
2022/12/22 18:03:47;;;;;;;50.77;25.50;;;;;;;;;;5020102;28;20440;-72
2022/12/22 18:06:14;;;;;;;40.73;22.40;;;;;;;;;;5021640;28;20249;-72
2022/12/22 18:08:44;;;;;;;47.97;25.57;;;;;;;;;;5030310;28;20227;-72
2022/12/22 18:11:11;;;;;;;49.73;24.50;;;;;;;;;;5026842;28;20464;-72
2022/12/22 18:13:38;;;;;;;51.17;26.63;;;;;;;;;;5047407;28;20190;-72
2022/12/22 18:16:06;;;;;;;39.37;22.67;;;;;;;;;;5014690;28;20480;-72
2022/12/22 18:18:33;;;;;;;47.90;23.97;;;;;;;;;;5038034;28;20277;-72